Norwegian Epic — C6XP7 — position and weather

sailwx.info

Track history (hours):
 
Tides and Currents Weather Stations Pressure Air Temp Water Temp Dewpoint Dewpoint Depression Visibility Wind Speed Wind Dir Waves Ship Positions

Norwegian Epic

Last reported at 2018-Jun-22 07:26 UTC. Time now 2018-Jun-22 07:40 UTC.
Position N 43°32' E 007°00'.

Length 329 m; draft 9.2 m.

Type: Passenger vessel. MMSI: 311018500.

Date/timePositionNaut miles runAvg speedWind from/ knotsBaromVisibWave heightAir tempDewpointWater temp
2018-Jun-22 07:26N 43°32' E 007°00'0 0.1
2018-Jun-22 07:00N 43°32' E 007°01'0 0.1
2018-Jun-22 06:30N 43°32' E 007°00'0 0.1
2018-Jun-22 05:58N 43°32' E 007°01'0 0.3
2018-Jun-22 05:29N 43°32' E 007°00'0 0.2
2018-Jun-22 05:00N 43°32' E 007°00'0 0.6
2018-Jun-22 04:30N 43°32' E 007°01'4 8.6
2018-Jun-22 04:00N 43°28' E 007°04'817.0
2018-Jun-22 03:30N 43°28' E 007°16'917.7
2018-Jun-22 02:59N 43°28' E 007°29'3716.7
2018-Jun-22 00:45N 43°30' E 008°20'415.4
2018-Jun-22 00:30N 43°30' E 008°25'613.1
2018-Jun-22 00:00N 43°30' E 008°34'611.1
2018-Jun-21 23:30N 43°30' E 008°42'611.3
2018-Jun-21 23:00N 43°30' E 008°50'611.4
2018-Jun-21 22:30N 43°30' E 008°58'611.6
2018-Jun-21 22:00N 43°31' E 009°06'611.6
2018-Jun-21 21:30N 43°31' E 009°14'611.9
2018-Jun-21 21:00N 43°31' E 009°22'611.8
2018-Jun-21 20:30N 43°31' E 009°30'611.9
2018-Jun-21 20:00N 43°31' E 009°38'611.7
2018-Jun-21 19:30N 43°31' E 009°46'611.7
2018-Jun-21 19:00N 43°31' E 009°54'611.8
2018-Jun-21 18:30N 43°31' E 010°02'611.9
2018-Jun-21 18:00N 43°31' E 010°11'510.2
2018-Jun-21 17:31N 43°32' E 010°17'1 1.4
2018-Jun-21 16:58N 43°33' E 010°18'0 0.0
2018-Jun-21 16:28N 43°33' E 010°18'0 0.0
2018-Jun-21 15:58N 43°33' E 010°18'0 0.0
2018-Jun-21 15:29N 43°33' E 010°18'0 0.0
2018-Jun-21 14:59N 43°33' E 010°18'0 0.0
2018-Jun-21 14:29N 43°33' E 010°18'0 0.0
2018-Jun-21 14:00N 43°33' E 010°18'0 0.0
2018-Jun-21 13:30N 43°33' E 010°18'0 0.0
2018-Jun-21 13:00N 43°33' E 010°18'0 0.0
2018-Jun-21 12:25N 43°33' E 010°18'0 0.0
2018-Jun-21 11:58N 43°33' E 010°18'0 0.0
2018-Jun-21 11:28N 43°33' E 010°18'0 0.0
2018-Jun-21 10:59N 43°33' E 010°18'0 0.0
2018-Jun-21 10:29N 43°33' E 010°18'0 0.0
2018-Jun-21 09:59N 43°33' E 010°18'0 0.0
2018-Jun-21 09:30N 43°33' E 010°18'0 0.0
2018-Jun-21 09:00N 43°33' E 010°18'0 0.0
2018-Jun-21 08:27N 43°33' E 010°18'0 0.0
2018-Jun-21 07:58N 43°33' E 010°18'0 0.0
2018-Jun-21 07:28N 43°33' E 010°18'0 0.0
2018-Jun-21 06:58N 43°33' E 010°18'0 0.0
2018-Jun-21 06:26N 43°33' E 010°18'0 0.0
2018-Jun-21 05:59N 43°33' E 010°18'0 0.0
2018-Jun-21 05:29N 43°33' E 010°18'0 0.0
2018-Jun-21 05:00N 43°33' E 010°18'1 2.3
2018-Jun-21 04:30N 43°32' E 010°17'3 5.6
2018-Jun-21 04:00N 43°30' E 010°14'611.6
2018-Jun-21 03:30N 43°25' E 010°12'713.3
2018-Jun-21 03:00N 43°18' E 010°10'612.9
2018-Jun-21 02:30N 43°12' E 010°08'712.9
2018-Jun-21 02:00N 43°05' E 010°06'613.1
2018-Jun-21 01:30N 42°59' E 010°04'816.0
2018-Jun-21 01:00N 42°52' E 009°60'816.3
2018-Jun-21 00:30N 42°44' E 009°57'816.4
2018-Jun-21 00:01N 42°36' E 009°55'816.2
2018-Jun-20 23:31N 42°28' E 009°55'816.2
2018-Jun-20 23:00N 42°20' E 009°56'5815.8
2018-Jun-20 19:19N 41°59' E 011°09'515.9
2018-Jun-20 19:00N 41°60' E 011°16'109 5.0
2018-Jun-19 21:05N 40°46' E 013°02'617.0
2018-Jun-19 20:43N 40°44' E 013°10'716.8
2018-Jun-19 20:17N 40°42' E 013°19'516.5
2018-Jun-19 20:01N 40°41' E 013°25'816.4
2018-Jun-19 19:30N 40°40' E 013°36'816.4
2018-Jun-19 19:00N 40°39' E 013°46'816.5
2018-Jun-19 18:30N 40°39' E 013°57'816.0
2018-Jun-19 18:00N 40°41' E 014°07'917.2
2018-Jun-19 17:30N 40°47' E 014°15'3 5.9
2018-Jun-19 17:01N 40°50' E 014°16'0 0.0
2018-Jun-19 16:28N 40°50' E 014°16'0 0.0
2018-Jun-19 15:59N 40°50' E 014°16'0 0.0
2018-Jun-19 15:29N 40°50' E 014°16'0 0.0
2018-Jun-19 14:59N 40°50' E 014°16'0 0.0
2018-Jun-19 14:30N 40°50' E 014°16'0 0.0
2018-Jun-19 14:00N 40°50' E 014°16'0 0.0
2018-Jun-19 13:30N 40°50' E 014°16'0 0.0
2018-Jun-19 12:58N 40°50' E 014°16'0 0.0
2018-Jun-19 12:28N 40°50' E 014°16'0 0.0
2018-Jun-19 11:58N 40°50' E 014°16'0 0.0
2018-Jun-19 11:29N 40°50' E 014°16'0 0.0
2018-Jun-19 10:56N 40°50' E 014°16'0 0.0
2018-Jun-19 10:29N 40°50' E 014°16'0 0.0
2018-Jun-19 10:00N 40°50' E 014°16'0 0.0
2018-Jun-19 09:30N 40°50' E 014°16'0 0.0
2018-Jun-19 09:00N 40°50' E 014°16'0 0.0
2018-Jun-19 08:28N 40°50' E 014°16'0 0.0
2018-Jun-19 07:58N 40°50' E 014°16'0 0.0
2018-Jun-19 07:25N 40°50' E 014°16'0 0.0
2018-Jun-19 06:59N 40°50' E 014°16'0 0.0
2018-Jun-19 06:28N 40°50' E 014°16'0 0.0
2018-Jun-19 05:59N 40°50' E 014°16'0 0.0
2018-Jun-19 05:30N 40°50' E 014°16'0 0.0
2018-Jun-19 05:00N 40°50' E 014°16'0 0.2
2018-Jun-19 04:30N 40°50' E 014°16'2 3.8
2018-Jun-19 04:00N 40°49' E 014°17'815.4
2018-Jun-19 03:30N 40°43' E 014°10'816.6
2018-Jun-19 03:00N 40°38' E 014°02'816.9
2018-Jun-19 02:31N 40°34' E 013°51'917.1
2018-Jun-19 02:00N 40°32' E 013°40'816.9
2018-Jun-19 01:30N 40°31' E 013°30'816.9
2018-Jun-19 01:00N 40°32' E 013°19'917.1
2018-Jun-19 00:30N 40°35' E 013°08'917.1
2018-Jun-19 00:01N 40°37' E 012°57'816.8
2018-Jun-18 23:31N 40°39' E 012°46'917.0
2018-Jun-18 23:00N 40°42' E 012°35'917.2
2018-Jun-18 22:31N 40°44' E 012°25'917.0
2018-Jun-18 22:00N 40°46' E 012°14'917.1
2018-Jun-18 21:30N 40°49' E 012°03'42915.5
2018-Jun-17 17:53N 41°16' E 002°36'616.4
2018-Jun-17 17:30N 41°15' E 002°28'817.0
2018-Jun-17 17:01N 41°15' E 002°16'612.3
2018-Jun-17 16:30N 41°19' E 002°10'3 5.7
2018-Jun-17 16:00N 41°22' E 002°11'0 0.0
2018-Jun-17 15:28N 41°22' E 002°11'0 0.0
2018-Jun-17 14:58N 41°22' E 002°11'0 0.0
2018-Jun-17 14:29N 41°22' E 002°11'0 0.0
2018-Jun-17 13:59N 41°22' E 002°11'0 0.0
2018-Jun-17 13:29N 41°22' E 002°11'0 0.0
2018-Jun-17 13:00N 41°22' E 002°11'0 0.0
2018-Jun-17 12:30N 41°22' E 002°11'0 0.0
2018-Jun-17 12:00N 41°22' E 002°11'0 0.0
2018-Jun-17 11:28N 41°22' E 002°11'0 0.0
2018-Jun-17 10:58N 41°22' E 002°11'0 0.0
2018-Jun-17 10:25N 41°22' E 002°11'0 0.0
2018-Jun-17 09:59N 41°22' E 002°11'0 0.0
2018-Jun-17 09:29N 41°22' E 002°11'0 0.0
2018-Jun-17 08:59N 41°22' E 002°11'0 0.0
2018-Jun-17 08:30N 41°22' E 002°11'0 0.0
2018-Jun-17 08:00N 41°22' E 002°11'0 0.0
2018-Jun-17 07:30N 41°22' E 002°11'0 0.0
2018-Jun-17 06:58N 41°22' E 002°11'0 0.0
2018-Jun-17 06:28N 41°22' E 002°11'0 0.0
2018-Jun-17 05:58N 41°22' E 002°11'0 0.0
2018-Jun-17 05:29N 41°22' E 002°11'0 0.0
2018-Jun-17 04:59N 41°22' E 002°11'0 0.0
2018-Jun-17 04:29N 41°22' E 002°11'0 0.0
2018-Jun-17 04:00N 41°22' E 002°11'0 0.0
2018-Jun-17 03:30N 41°22' E 002°11'0 0.0
2018-Jun-17 03:00N 41°22' E 002°11'1 2.0
2018-Jun-17 02:30N 41°21' E 002°10'3 6.6
2018-Jun-17 02:00N 41°18' E 002°11'714.3
2018-Jun-17 01:30N 41°11' E 002°12'1116.1
2018-Jun-17 00:50N 40°60' E 002°12'2616.4
2018-Jun-16 23:15N 40°34' E 002°14'1716.4
2018-Jun-16 22:14N 40°17' E 002°13'916.4
2018-Jun-16 21:42N 40°08' E 002°13'316.4
2018-Jun-16 21:31N 40°05' E 002°13'1716.5
2018-Jun-16 20:28N 39°48' E 002°14'816.7
2018-Jun-16 20:01N 39°40' E 002°15'1015.7
2018-Jun-16 19:24N 39°31' E 002°19'616.2
2018-Jun-16 19:00N 39°27' E 002°25'714.0
2018-Jun-16 18:30N 39°27' E 002°34'713.4
2018-Jun-16 18:00N 39°33' E 002°39'0 0.8
2018-Jun-16 17:29N 39°33' E 002°38'0 0.0
2018-Jun-16 17:00N 39°33' E 002°38'0 0.0
2018-Jun-16 16:30N 39°33' E 002°38'0 0.0
2018-Jun-16 16:00N 39°33' E 002°38'0 0.0
2018-Jun-16 15:28N 39°33' E 002°38'0 0.0
2018-Jun-16 14:58N 39°33' E 002°38'0 0.0
2018-Jun-16 14:28N 39°33' E 002°38'0 0.0
2018-Jun-16 13:59N 39°33' E 002°38'0 0.0
2018-Jun-16 13:29N 39°33' E 002°38'0 0.0
2018-Jun-16 12:59N 39°33' E 002°38'0 0.0
2018-Jun-16 12:30N 39°33' E 002°38'0 0.0
2018-Jun-16 12:00N 39°33' E 002°38'0 0.0
2018-Jun-16 11:30N 39°33' E 002°38'0 0.0
2018-Jun-16 10:58N 39°33' E 002°38'0 0.0
2018-Jun-16 10:28N 39°33' E 002°38'1 1.8
2018-Jun-16 10:00N 39°33' E 002°39'714.0
2018-Jun-16 09:31N 39°27' E 002°34'815.2
2018-Jun-16 09:00N 39°27' E 002°24'1014.7
2018-Jun-16 08:19N 39°36' E 002°17'619.5
2018-Jun-16 08:00N 39°41' E 002°22'1019.7
2018-Jun-16 07:29N 39°49' E 002°30'1519.5
2018-Jun-16 06:44N 39°60' E 002°43'519.4
2018-Jun-16 06:28N 40°03' E 002°47'2119.7
2018-Jun-16 05:23N 40°18' E 003°07'820.0
2018-Jun-16 05:00N 40°24' E 003°14'12621.5
2018-Jun-15 23:10N 41°53' E 005°11'421.8
2018-Jun-15 22:59N 41°56' E 005°14'1121.9
2018-Jun-15 22:30N 42°04' E 005°24'1020.8
2018-Jun-15 22:00N 42°11' E 005°34'1019.3
2018-Jun-15 21:30N 42°18' E 005°43'1019.0
2018-Jun-15 20:59N 42°25' E 005°53'919.0
2018-Jun-15 20:30N 42°32' E 006°01'1019.2
2018-Jun-15 20:00N 42°39' E 006°09'1118.9
2018-Jun-15 19:26N 42°47' E 006°20'919.3
2018-Jun-15 18:58N 42°53' E 006°29'919.5
2018-Jun-15 18:30N 42°59' E 006°38'1019.3
2018-Jun-15 18:00N 43°06' E 006°47'919.3
2018-Jun-15 17:30N 43°15' E 006°52'919.0
2018-Jun-15 17:00N 43°24' E 006°57'815.3
2018-Jun-15 16:31N 43°31' E 007°00'1 2.5
2018-Jun-15 16:00N 43°32' E 007°01'1 1.2
2018-Jun-15 15:26N 43°33' E 007°01'1 1.4
2018-Jun-15 15:00N 43°32' E 007°01'0 0.2
2018-Jun-15 14:27N 43°32' E 007°01'1 1.5
2018-Jun-15 14:00N 43°33' E 007°01'1 1.4
2018-Jun-15 13:30N 43°32' E 007°01'0 0.1
2018-Jun-15 12:59N 43°32' E 007°01'0 0.1
2018-Jun-15 12:30N 43°32' E 007°01'0 0.0
2018-Jun-15 12:00N 43°32' E 007°01'0 0.0
2018-Jun-15 11:30N 43°32' E 007°01'1 1.4
2018-Jun-15 11:00N 43°33' E 007°01'0 1.0
2018-Jun-15 10:30N 43°32' E 007°01'0 0.5
2018-Jun-15 09:59N 43°32' E 007°01'0 0.0
2018-Jun-15 09:30N 43°32' E 007°01'0 0.8
2018-Jun-15 09:00N 43°32' E 007°01'0 0.6
2018-Jun-15 08:30N 43°32' E 007°01'0 0.3
2018-Jun-15 08:00N 43°32' E 007°01'0 0.7
2018-Jun-15 07:29N 43°32' E 007°01'0 0.7
2018-Jun-15 07:00N 43°32' E 007°01'0 0.1
2018-Jun-15 06:30N 43°32' E 007°01'1 1.1
2018-Jun-15 06:00N 43°32' E 007°01'0 0.7
2018-Jun-15 05:30N 43°33' E 007°01'1 1.6
2018-Jun-15 05:00N 43°32' E 007°01'0 0.1
2018-Jun-15 04:30N 43°32' E 007°01'4 7.3
2018-Jun-15 04:00N 43°29' E 007°03'815.5
2018-Jun-15 03:30N 43°28' E 007°13'816.1
2018-Jun-15 03:01N 43°28' E 007°24'917.6
2018-Jun-15 02:30N 43°29' E 007°37'917.9
2018-Jun-15 02:01N 43°29' E 007°49'917.6
2018-Jun-15 01:31N 43°29' E 008°01'713.2
2018-Jun-15 01:00N 43°29' E 008°10'612.6
2018-Jun-15 00:30N 43°30' E 008°19'612.3
2018-Jun-15 00:00N 43°30' E 008°27'611.9
2018-Jun-14 23:31N 43°30' E 008°35'611.9
2018-Jun-14 23:00N 43°30' E 008°44'612.1
2018-Jun-14 22:30N 43°30' E 008°52'612.2
2018-Jun-14 22:00N 43°31' E 009°00'612.2
2018-Jun-14 21:30N 43°31' E 009°09'612.0
2018-Jun-14 21:00N 43°31' E 009°17'612.1
2018-Jun-14 20:30N 43°31' E 009°25'612.2
2018-Jun-14 20:00N 43°31' E 009°34'612.4
2018-Jun-14 19:30N 43°31' E 009°42'612.6
2018-Jun-14 19:00N 43°31' E 009°51'612.2
2018-Jun-14 18:30N 43°31' E 009°59'612.1
2018-Jun-14 18:00N 43°31' E 010°08'611.8
2018-Jun-14 17:30N 43°32' E 010°16'2 3.6
2018-Jun-14 16:59N 43°33' E 010°18'0 0.0
2018-Jun-14 16:30N 43°33' E 010°18'0 0.0
2018-Jun-14 16:00N 43°33' E 010°18'0 0.0
2018-Jun-14 15:30N 43°33' E 010°18'0 0.0
2018-Jun-14 14:55N 43°33' E 010°18'0 0.0
2018-Jun-14 14:28N 43°33' E 010°18'0 0.0
2018-Jun-14 13:58N 43°33' E 010°18'0 0.2
2018-Jun-14 13:30N 43°33' E 010°18'0 0.1
2018-Jun-14 12:59N 43°33' E 010°18'0 0.1
2018-Jun-14 12:30N 43°33' E 010°18'0 0.1
2018-Jun-14 12:00N 43°33' E 010°18'0 0.0
2018-Jun-14 11:30N 43°33' E 010°18'0 0.0
2018-Jun-14 11:00N 43°33' E 010°18'0 0.0
2018-Jun-14 10:28N 43°33' E 010°18'0 0.0
2018-Jun-14 09:58N 43°33' E 010°18'0 0.0
2018-Jun-14 09:28N 43°33' E 010°18'0 0.0
2018-Jun-14 08:59N 43°33' E 010°18'0 0.0
2018-Jun-14 08:29N 43°33' E 010°18'0 0.0
2018-Jun-14 07:59N 43°33' E 010°18'0 0.0
2018-Jun-14 07:30N 43°33' E 010°18'0 0.0
2018-Jun-14 07:00N 43°33' E 010°18'0 0.0
2018-Jun-14 06:30N 43°33' E 010°18'0 0.0
2018-Jun-14 05:58N 43°33' E 010°18'0 0.0
2018-Jun-14 05:28N 43°33' E 010°18'0 0.0
2018-Jun-14 04:58N 43°33' E 010°18'0 0.1
2018-Jun-14 04:31N 43°33' E 010°18'3 6.0
2018-Jun-14 04:00N 43°31' E 010°15'510.4
2018-Jun-14 03:30N 43°26' E 010°12'612.9
2018-Jun-14 03:01N 43°20' E 010°10'612.9
2018-Jun-14 02:31N 43°14' E 010°08'713.2
2018-Jun-14 02:01N 43°07' E 010°06'713.3
2018-Jun-14 01:30N 43°01' E 010°04'713.2
2018-Jun-14 01:00N 42°54' E 010°01'4813.4
2018-Jun-13 21:24N 42°09' E 010°23'167 6.5
2018-Jun-12 19:44N 40°40' E 013°31'416.3
2018-Jun-12 19:30N 40°40' E 013°36'816.2
2018-Jun-12 19:00N 40°39' E 013°47'816.4
2018-Jun-12 18:30N 40°39' E 013°58'815.8
2018-Jun-12 18:00N 40°41' E 014°07'816.3
2018-Jun-12 17:30N 40°47' E 014°15'3 6.3
2018-Jun-12 16:58N 40°50' E 014°16'0 0.0
2018-Jun-12 16:28N 40°50' E 014°16'0 0.0
2018-Jun-12 15:59N 40°50' E 014°16'0 0.0
2018-Jun-12 15:29N 40°50' E 014°16'0 0.0
2018-Jun-12 14:59N 40°50' E 014°16'0 0.0
2018-Jun-12 14:30N 40°50' E 014°16'0 0.0
2018-Jun-12 14:00N 40°50' E 014°16'0 0.0
2018-Jun-12 13:30N 40°50' E 014°16'0 0.0
2018-Jun-12 12:58N 40°50' E 014°16'0 0.0
2018-Jun-12 12:28N 40°50' E 014°16'0 0.0
2018-Jun-12 11:58N 40°50' E 014°16'0 0.0
2018-Jun-12 11:29N 40°50' E 014°16'0 0.0
2018-Jun-12 10:59N 40°50' E 014°16'0 0.0
2018-Jun-12 10:29N 40°50' E 014°16'0 0.0
2018-Jun-12 10:00N 40°50' E 014°16'0 0.0
2018-Jun-12 09:30N 40°50' E 014°16'0 0.0
2018-Jun-12 09:00N 40°50' E 014°16'0 0.0
2018-Jun-12 08:28N 40°50' E 014°16'0 0.0
2018-Jun-12 07:58N 40°50' E 014°16'0 0.0
2018-Jun-12 07:28N 40°50' E 014°16'  
Track history (hours):
 
Tides and Currents Weather Stations Pressure Air Temp Water Temp Dewpoint Dewpoint Depression Visibility Wind Speed Wind Dir Waves Ship Positions

Norwegian Epic

Last reported at 2018-Jun-22 07:26 UTC. Time now 2018-Jun-22 07:40 UTC.
Position N 43°32' E 007°00'.

Length 329 m; draft 9.2 m.

Type: Passenger vessel. MMSI: 311018500.

Date/timePositionNaut miles runAvg speedWind from/ knotsBaromVisibWave heightAir tempDewpointWater temp
2018-Jun-22 07:26N 43°32' E 007°00'0 0.1
2018-Jun-22 07:00N 43°32' E 007°01'0 0.1
2018-Jun-22 06:30N 43°32' E 007°00'0 0.1
2018-Jun-22 05:58N 43°32' E 007°01'0 0.3
2018-Jun-22 05:29N 43°32' E 007°00'0 0.2
2018-Jun-22 05:00N 43°32' E 007°00'0 0.6
2018-Jun-22 04:30N 43°32' E 007°01'4 8.6
2018-Jun-22 04:00N 43°28' E 007°04'817.0
2018-Jun-22 03:30N 43°28' E 007°16'917.7
2018-Jun-22 02:59N 43°28' E 007°29'3716.7
2018-Jun-22 00:45N 43°30' E 008°20'415.4
2018-Jun-22 00:30N 43°30' E 008°25'613.1
2018-Jun-22 00:00N 43°30' E 008°34'611.1
2018-Jun-21 23:30N 43°30' E 008°42'611.3
2018-Jun-21 23:00N 43°30' E 008°50'611.4
2018-Jun-21 22:30N 43°30' E 008°58'611.6
2018-Jun-21 22:00N 43°31' E 009°06'611.6
2018-Jun-21 21:30N 43°31' E 009°14'611.9
2018-Jun-21 21:00N 43°31' E 009°22'611.8
2018-Jun-21 20:30N 43°31' E 009°30'611.9
2018-Jun-21 20:00N 43°31' E 009°38'611.7
2018-Jun-21 19:30N 43°31' E 009°46'611.7
2018-Jun-21 19:00N 43°31' E 009°54'611.8
2018-Jun-21 18:30N 43°31' E 010°02'611.9
2018-Jun-21 18:00N 43°31' E 010°11'510.2
2018-Jun-21 17:31N 43°32' E 010°17'1 1.4
2018-Jun-21 16:58N 43°33' E 010°18'0 0.0
2018-Jun-21 16:28N 43°33' E 010°18'0 0.0
2018-Jun-21 15:58N 43°33' E 010°18'0 0.0
2018-Jun-21 15:29N 43°33' E 010°18'0 0.0
2018-Jun-21 14:59N 43°33' E 010°18'0 0.0
2018-Jun-21 14:29N 43°33' E 010°18'0 0.0
2018-Jun-21 14:00N 43°33' E 010°18'0 0.0
2018-Jun-21 13:30N 43°33' E 010°18'0 0.0
2018-Jun-21 13:00N 43°33' E 010°18'0 0.0
2018-Jun-21 12:25N 43°33' E 010°18'0 0.0
2018-Jun-21 11:58N 43°33' E 010°18'0 0.0
2018-Jun-21 11:28N 43°33' E 010°18'0 0.0
2018-Jun-21 10:59N 43°33' E 010°18'0 0.0
2018-Jun-21 10:29N 43°33' E 010°18'0 0.0
2018-Jun-21 09:59N 43°33' E 010°18'0 0.0
2018-Jun-21 09:30N 43°33' E 010°18'0 0.0
2018-Jun-21 09:00N 43°33' E 010°18'0 0.0
2018-Jun-21 08:27N 43°33' E 010°18'0 0.0
2018-Jun-21 07:58N 43°33' E 010°18'0 0.0
2018-Jun-21 07:28N 43°33' E 010°18'0 0.0
2018-Jun-21 06:58N 43°33' E 010°18'0 0.0
2018-Jun-21 06:26N 43°33' E 010°18'0 0.0
2018-Jun-21 05:59N 43°33' E 010°18'0 0.0
2018-Jun-21 05:29N 43°33' E 010°18'0 0.0
2018-Jun-21 05:00N 43°33' E 010°18'1 2.3
2018-Jun-21 04:30N 43°32' E 010°17'3 5.6
2018-Jun-21 04:00N 43°30' E 010°14'611.6
2018-Jun-21 03:30N 43°25' E 010°12'713.3
2018-Jun-21 03:00N 43°18' E 010°10'612.9
2018-Jun-21 02:30N 43°12' E 010°08'712.9
2018-Jun-21 02:00N 43°05' E 010°06'613.1
2018-Jun-21 01:30N 42°59' E 010°04'816.0
2018-Jun-21 01:00N 42°52' E 009°60'816.3
2018-Jun-21 00:30N 42°44' E 009°57'816.4
2018-Jun-21 00:01N 42°36' E 009°55'816.2
2018-Jun-20 23:31N 42°28' E 009°55'816.2
2018-Jun-20 23:00N 42°20' E 009°56'5815.8
2018-Jun-20 19:19N 41°59' E 011°09'515.9
2018-Jun-20 19:00N 41°60' E 011°16'109 5.0
2018-Jun-19 21:05N 40°46' E 013°02'617.0
2018-Jun-19 20:43N 40°44' E 013°10'716.8
2018-Jun-19 20:17N 40°42' E 013°19'516.5
2018-Jun-19 20:01N 40°41' E 013°25'816.4
2018-Jun-19 19:30N 40°40' E 013°36'816.4
2018-Jun-19 19:00N 40°39' E 013°46'816.5
2018-Jun-19 18:30N 40°39' E 013°57'816.0
2018-Jun-19 18:00N 40°41' E 014°07'917.2
2018-Jun-19 17:30N 40°47' E 014°15'3 5.9
2018-Jun-19 17:01N 40°50' E 014°16'0 0.0
2018-Jun-19 16:28N 40°50' E 014°16'0 0.0
2018-Jun-19 15:59N 40°50' E 014°16'0 0.0
2018-Jun-19 15:29N 40°50' E 014°16'0 0.0
2018-Jun-19 14:59N 40°50' E 014°16'0 0.0
2018-Jun-19 14:30N 40°50' E 014°16'0 0.0
2018-Jun-19 14:00N 40°50' E 014°16'0 0.0
2018-Jun-19 13:30N 40°50' E 014°16'0 0.0
2018-Jun-19 12:58N 40°50' E 014°16'0 0.0
2018-Jun-19 12:28N 40°50' E 014°16'0 0.0
2018-Jun-19 11:58N 40°50' E 014°16'0 0.0
2018-Jun-19 11:29N 40°50' E 014°16'0 0.0
2018-Jun-19 10:56N 40°50' E 014°16'0 0.0
2018-Jun-19 10:29N 40°50' E 014°16'0 0.0
2018-Jun-19 10:00N 40°50' E 014°16'0 0.0
2018-Jun-19 09:30N 40°50' E 014°16'0 0.0
2018-Jun-19 09:00N 40°50' E 014°16'0 0.0
2018-Jun-19 08:28N 40°50' E 014°16'0 0.0
2018-Jun-19 07:58N 40°50' E 014°16'0 0.0
2018-Jun-19 07:25N 40°50' E 014°16'0 0.0
2018-Jun-19 06:59N 40°50' E 014°16'0 0.0
2018-Jun-19 06:28N 40°50' E 014°16'0 0.0
2018-Jun-19 05:59N 40°50' E 014°16'0 0.0
2018-Jun-19 05:30N 40°50' E 014°16'0 0.0
2018-Jun-19 05:00N 40°50' E 014°16'0 0.2
2018-Jun-19 04:30N 40°50' E 014°16'2 3.8
2018-Jun-19 04:00N 40°49' E 014°17'815.4
2018-Jun-19 03:30N 40°43' E 014°10'816.6
2018-Jun-19 03:00N 40°38' E 014°02'816.9
2018-Jun-19 02:31N 40°34' E 013°51'917.1
2018-Jun-19 02:00N 40°32' E 013°40'816.9
2018-Jun-19 01:30N 40°31' E 013°30'816.9
2018-Jun-19 01:00N 40°32' E 013°19'917.1
2018-Jun-19 00:30N 40°35' E 013°08'917.1
2018-Jun-19 00:01N 40°37' E 012°57'816.8
2018-Jun-18 23:31N 40°39' E 012°46'917.0
2018-Jun-18 23:00N 40°42' E 012°35'917.2
2018-Jun-18 22:31N 40°44' E 012°25'917.0
2018-Jun-18 22:00N 40°46' E 012°14'917.1
2018-Jun-18 21:30N 40°49' E 012°03'42915.5
2018-Jun-17 17:53N 41°16' E 002°36'616.4
2018-Jun-17 17:30N 41°15' E 002°28'817.0
2018-Jun-17 17:01N 41°15' E 002°16'612.3
2018-Jun-17 16:30N 41°19' E 002°10'3 5.7
2018-Jun-17 16:00N 41°22' E 002°11'0 0.0
2018-Jun-17 15:28N 41°22' E 002°11'0 0.0
2018-Jun-17 14:58N 41°22' E 002°11'0 0.0
2018-Jun-17 14:29N 41°22' E 002°11'0 0.0
2018-Jun-17 13:59N 41°22' E 002°11'0 0.0
2018-Jun-17 13:29N 41°22' E 002°11'0 0.0
2018-Jun-17 13:00N 41°22' E 002°11'0 0.0
2018-Jun-17 12:30N 41°22' E 002°11'0 0.0
2018-Jun-17 12:00N 41°22' E 002°11'0 0.0
2018-Jun-17 11:28N 41°22' E 002°11'0 0.0
2018-Jun-17 10:58N 41°22' E 002°11'0 0.0
2018-Jun-17 10:25N 41°22' E 002°11'0 0.0
2018-Jun-17 09:59N 41°22' E 002°11'0 0.0
2018-Jun-17 09:29N 41°22' E 002°11'0 0.0
2018-Jun-17 08:59N 41°22' E 002°11'0 0.0
2018-Jun-17 08:30N 41°22' E 002°11'0 0.0
2018-Jun-17 08:00N 41°22' E 002°11'0 0.0
2018-Jun-17 07:30N 41°22' E 002°11'0 0.0
2018-Jun-17 06:58N 41°22' E 002°11'0 0.0
2018-Jun-17 06:28N 41°22' E 002°11'0 0.0
2018-Jun-17 05:58N 41°22' E 002°11'0 0.0
2018-Jun-17 05:29N 41°22' E 002°11'0 0.0
2018-Jun-17 04:59N 41°22' E 002°11'0 0.0
2018-Jun-17 04:29N 41°22' E 002°11'0 0.0
2018-Jun-17 04:00N 41°22' E 002°11'0 0.0
2018-Jun-17 03:30N 41°22' E 002°11'0 0.0
2018-Jun-17 03:00N 41°22' E 002°11'1 2.0
2018-Jun-17 02:30N 41°21' E 002°10'3 6.6
2018-Jun-17 02:00N 41°18' E 002°11'714.3
2018-Jun-17 01:30N 41°11' E 002°12'1116.1
2018-Jun-17 00:50N 40°60' E 002°12'2616.4
2018-Jun-16 23:15N 40°34' E 002°14'1716.4
2018-Jun-16 22:14N 40°17' E 002°13'916.4
2018-Jun-16 21:42N 40°08' E 002°13'316.4
2018-Jun-16 21:31N 40°05' E 002°13'1716.5
2018-Jun-16 20:28N 39°48' E 002°14'816.7
2018-Jun-16 20:01N 39°40' E 002°15'1015.7
2018-Jun-16 19:24N 39°31' E 002°19'616.2
2018-Jun-16 19:00N 39°27' E 002°25'714.0
2018-Jun-16 18:30N 39°27' E 002°34'713.4
2018-Jun-16 18:00N 39°33' E 002°39'0 0.8
2018-Jun-16 17:29N 39°33' E 002°38'0 0.0
2018-Jun-16 17:00N 39°33' E 002°38'0 0.0
2018-Jun-16 16:30N 39°33' E 002°38'0 0.0
2018-Jun-16 16:00N 39°33' E 002°38'0 0.0
2018-Jun-16 15:28N 39°33' E 002°38'0 0.0
2018-Jun-16 14:58N 39°33' E 002°38'0 0.0
2018-Jun-16 14:28N 39°33' E 002°38'0 0.0
2018-Jun-16 13:59N 39°33' E 002°38'0 0.0
2018-Jun-16 13:29N 39°33' E 002°38'0 0.0
2018-Jun-16 12:59N 39°33' E 002°38'0 0.0
2018-Jun-16 12:30N 39°33' E 002°38'0 0.0
2018-Jun-16 12:00N 39°33' E 002°38'0 0.0
2018-Jun-16 11:30N 39°33' E 002°38'0 0.0
2018-Jun-16 10:58N 39°33' E 002°38'0 0.0
2018-Jun-16 10:28N 39°33' E 002°38'1 1.8
2018-Jun-16 10:00N 39°33' E 002°39'714.0
2018-Jun-16 09:31N 39°27' E 002°34'815.2
2018-Jun-16 09:00N 39°27' E 002°24'1014.7
2018-Jun-16 08:19N 39°36' E 002°17'619.5
2018-Jun-16 08:00N 39°41' E 002°22'1019.7
2018-Jun-16 07:29N 39°49' E 002°30'1519.5
2018-Jun-16 06:44N 39°60' E 002°43'519.4
2018-Jun-16 06:28N 40°03' E 002°47'2119.7
2018-Jun-16 05:23N 40°18' E 003°07'820.0
2018-Jun-16 05:00N 40°24' E 003°14'12621.5
2018-Jun-15 23:10N 41°53' E 005°11'421.8
2018-Jun-15 22:59N 41°56' E 005°14'1121.9
2018-Jun-15 22:30N 42°04' E 005°24'1020.8
2018-Jun-15 22:00N 42°11' E 005°34'1019.3
2018-Jun-15 21:30N 42°18' E 005°43'1019.0
2018-Jun-15 20:59N 42°25' E 005°53'919.0
2018-Jun-15 20:30N 42°32' E 006°01'1019.2
2018-Jun-15 20:00N 42°39' E 006°09'1118.9
2018-Jun-15 19:26N 42°47' E 006°20'919.3
2018-Jun-15 18:58N 42°53' E 006°29'919.5
2018-Jun-15 18:30N 42°59' E 006°38'1019.3
2018-Jun-15 18:00N 43°06' E 006°47'919.3
2018-Jun-15 17:30N 43°15' E 006°52'919.0
2018-Jun-15 17:00N 43°24' E 006°57'815.3
2018-Jun-15 16:31N 43°31' E 007°00'1 2.5
2018-Jun-15 16:00N 43°32' E 007°01'1 1.2
2018-Jun-15 15:26N 43°33' E 007°01'1 1.4
2018-Jun-15 15:00N 43°32' E 007°01'0 0.2
2018-Jun-15 14:27N 43°32' E 007°01'1 1.5
2018-Jun-15 14:00N 43°33' E 007°01'1 1.4
2018-Jun-15 13:30N 43°32' E 007°01'0 0.1
2018-Jun-15 12:59N 43°32' E 007°01'0 0.1
2018-Jun-15 12:30N 43°32' E 007°01'0 0.0
2018-Jun-15 12:00N 43°32' E 007°01'0 0.0
2018-Jun-15 11:30N 43°32' E 007°01'1 1.4
2018-Jun-15 11:00N 43°33' E 007°01'0 1.0
2018-Jun-15 10:30N 43°32' E 007°01'0 0.5
2018-Jun-15 09:59N 43°32' E 007°01'0 0.0
2018-Jun-15 09:30N 43°32' E 007°01'0 0.8
2018-Jun-15 09:00N 43°32' E 007°01'0 0.6
2018-Jun-15 08:30N 43°32' E 007°01'0 0.3
2018-Jun-15 08:00N 43°32' E 007°01'0 0.7
2018-Jun-15 07:29N 43°32' E 007°01'0 0.7
2018-Jun-15 07:00N 43°32' E 007°01'0 0.1
2018-Jun-15 06:30N 43°32' E 007°01'1 1.1
2018-Jun-15 06:00N 43°32' E 007°01'0 0.7
2018-Jun-15 05:30N 43°33' E 007°01'1 1.6
2018-Jun-15 05:00N 43°32' E 007°01'0 0.1
2018-Jun-15 04:30N 43°32' E 007°01'4 7.3
2018-Jun-15 04:00N 43°29' E 007°03'815.5
2018-Jun-15 03:30N 43°28' E 007°13'816.1
2018-Jun-15 03:01N 43°28' E 007°24'917.6
2018-Jun-15 02:30N 43°29' E 007°37'917.9
2018-Jun-15 02:01N 43°29' E 007°49'917.6
2018-Jun-15 01:31N 43°29' E 008°01'713.2
2018-Jun-15 01:00N 43°29' E 008°10'612.6
2018-Jun-15 00:30N 43°30' E 008°19'612.3
2018-Jun-15 00:00N 43°30' E 008°27'611.9
2018-Jun-14 23:31N 43°30' E 008°35'611.9
2018-Jun-14 23:00N 43°30' E 008°44'612.1
2018-Jun-14 22:30N 43°30' E 008°52'612.2
2018-Jun-14 22:00N 43°31' E 009°00'612.2
2018-Jun-14 21:30N 43°31' E 009°09'612.0
2018-Jun-14 21:00N 43°31' E 009°17'612.1
2018-Jun-14 20:30N 43°31' E 009°25'612.2
2018-Jun-14 20:00N 43°31' E 009°34'612.4
2018-Jun-14 19:30N 43°31' E 009°42'612.6
2018-Jun-14 19:00N 43°31' E 009°51'612.2
2018-Jun-14 18:30N 43°31' E 009°59'612.1
2018-Jun-14 18:00N 43°31' E 010°08'611.8
2018-Jun-14 17:30N 43°32' E 010°16'2 3.6
2018-Jun-14 16:59N 43°33' E 010°18'0 0.0
2018-Jun-14 16:30N 43°33' E 010°18'0 0.0
2018-Jun-14 16:00N 43°33' E 010°18'0 0.0
2018-Jun-14 15:30N 43°33' E 010°18'0 0.0
2018-Jun-14 14:55N 43°33' E 010°18'0 0.0
2018-Jun-14 14:28N 43°33' E 010°18'0 0.0
2018-Jun-14 13:58N 43°33' E 010°18'0 0.2
2018-Jun-14 13:30N 43°33' E 010°18'0 0.1
2018-Jun-14 12:59N 43°33' E 010°18'0 0.1
2018-Jun-14 12:30N 43°33' E 010°18'0 0.1
2018-Jun-14 12:00N 43°33' E 010°18'0 0.0
2018-Jun-14 11:30N 43°33' E 010°18'0 0.0
2018-Jun-14 11:00N 43°33' E 010°18'0 0.0
2018-Jun-14 10:28N 43°33' E 010°18'0 0.0
2018-Jun-14 09:58N 43°33' E 010°18'0 0.0
2018-Jun-14 09:28N 43°33' E 010°18'0 0.0
2018-Jun-14 08:59N 43°33' E 010°18'0 0.0
2018-Jun-14 08:29N 43°33' E 010°18'0 0.0
2018-Jun-14 07:59N 43°33' E 010°18'0 0.0
2018-Jun-14 07:30N 43°33' E 010°18'0 0.0
2018-Jun-14 07:00N 43°33' E 010°18'0 0.0
2018-Jun-14 06:30N 43°33' E 010°18'0 0.0
2018-Jun-14 05:58N 43°33' E 010°18'0 0.0
2018-Jun-14 05:28N 43°33' E 010°18'0 0.0
2018-Jun-14 04:58N 43°33' E 010°18'0 0.1
2018-Jun-14 04:31N 43°33' E 010°18'3 6.0
2018-Jun-14 04:00N 43°31' E 010°15'510.4
2018-Jun-14 03:30N 43°26' E 010°12'612.9
2018-Jun-14 03:01N 43°20' E 010°10'612.9
2018-Jun-14 02:31N 43°14' E 010°08'713.2
2018-Jun-14 02:01N 43°07' E 010°06'713.3
2018-Jun-14 01:30N 43°01' E 010°04'713.2
2018-Jun-14 01:00N 42°54' E 010°01'4813.4
2018-Jun-13 21:24N 42°09' E 010°23'167 6.5
2018-Jun-12 19:44N 40°40' E 013°31'416.3
2018-Jun-12 19:30N 40°40' E 013°36'816.2
2018-Jun-12 19:00N 40°39' E 013°47'816.4
2018-Jun-12 18:30N 40°39' E 013°58'815.8
2018-Jun-12 18:00N 40°41' E 014°07'816.3
2018-Jun-12 17:30N 40°47' E 014°15'3 6.3
2018-Jun-12 16:58N 40°50' E 014°16'0 0.0
2018-Jun-12 16:28N 40°50' E 014°16'0 0.0
2018-Jun-12 15:59N 40°50' E 014°16'0 0.0
2018-Jun-12 15:29N 40°50' E 014°16'0 0.0
2018-Jun-12 14:59N 40°50' E 014°16'0 0.0
2018-Jun-12 14:30N 40°50' E 014°16'0 0.0
2018-Jun-12 14:00N 40°50' E 014°16'0 0.0
2018-Jun-12 13:30N 40°50' E 014°16'0 0.0
2018-Jun-12 12:58N 40°50' E 014°16'0 0.0
2018-Jun-12 12:28N 40°50' E 014°16'0 0.0
2018-Jun-12 11:58N 40°50' E 014°16'0 0.0
2018-Jun-12 11:29N 40°50' E 014°16'0 0.0
2018-Jun-12 10:59N 40°50' E 014°16'0 0.0
2018-Jun-12 10:29N 40°50' E 014°16'0 0.0
2018-Jun-12 10:00N 40°50' E 014°16'0 0.0
2018-Jun-12 09:30N 40°50' E 014°16'0 0.0
2018-Jun-12 09:00N 40°50' E 014°16'0 0.0
2018-Jun-12 08:28N 40°50' E 014°16'0 0.0
2018-Jun-12 07:58N 40°50' E 014°16'0 0.0
2018-Jun-12 07:28N 40°50' E 014°16'  

Dump ship's entire track history